METAR Formatted Surface Weather Observation
Issued by NWS

Home | Current Version | Previous Version | Text Only | Print | Product List | Glossary On
Versions: 1
000
SAUS46 KSEW 250358
MTRSMP
METAR KSMP 250356Z AUTO VRB04KT -RA OVC002 03/02 A2991 RMK AO2
SLP143 P0011 T00280017 $



USA.gov is the U.S. government's official web portal to all federal, state and local government web resources and services.